Time;durP1;ratioP1;P1;durP2;ratioP2;P2;SDS_P1;SDS_P2;PMS_P1;PMS_P2;Temp;Humidity;BMP_temperature;BMP_pressure;BME280_temperature;BME280_humidity;BME280_pressure;Samples;Min_cycle;Max_cycle;Signal;HPM_P1;HPM_P2
2022/06/19 00:01:58;;;;;;;4.25;3.85;;;21.80;62.70;;;;;;650560;221;26859;-73
2022/06/19 00:04:25;;;;;;;6.65;3.70;;;21.80;64.40;;;;;;650605;221;26560;-73
2022/06/19 00:06:53;;;;;;;5.85;3.72;;;21.70;63.20;;;;;;650624;221;26842;-73
2022/06/19 00:09:20;;;;;;;4.70;3.62;;;21.70;63.30;;;;;;650485;220;26612;-72
2022/06/19 00:11:47;;;;;;;4.95;4.12;;;21.70;64.30;;;;;;650620;221;26804;-72
2022/06/19 00:14:15;;;;;;;4.32;3.83;;;21.70;64.30;;;;;;650541;221;26557;-71
2022/06/19 00:16:43;;;;;;;4.28;3.87;;;21.60;64.70;;;;;;650470;221;26586;-71
2022/06/19 00:19:11;;;;;;;5.22;3.95;;;21.60;64.70;;;;;;650249;221;26606;-72
2022/06/19 00:21:40;;;;;;;5.07;4.37;;;21.60;65.40;;;;;;650463;221;26545;-72
2022/06/19 00:24:07;;;;;;;4.07;3.78;;;21.60;65.40;;;;;;650582;221;26598;-71
2022/06/19 00:26:34;;;;;;;6.62;4.10;;;21.60;65.10;;;;;;650597;221;26585;-71
2022/06/19 00:29:01;;;;;;;4.47;3.92;;;21.60;65.00;;;;;;650546;221;26620;-71
2022/06/19 00:31:29;;;;;;;5.43;3.80;;;21.50;65.30;;;;;;652339;219;26802;-71
2022/06/19 00:33:56;;;;;;;4.72;4.05;;;21.50;65.80;;;;;;652024;220;26562;-71
2022/06/19 00:36:26;;;;;;;4.70;4.30;;;21.50;66.00;;;;;;651746;221;26830;-72
2022/06/19 00:38:50;;;;;;;7.03;3.83;;;21.50;64.90;;;;;;651346;221;26550;-72
2022/06/19 00:41:17;;;;;;;5.05;4.03;;;21.50;65.00;;;;;;651297;221;27244;-72
2022/06/19 00:43:52;;;;;;;4.90;3.58;;;21.40;65.30;;;;;;651290;221;26773;-72
2022/06/19 00:46:31;;;;;;;7.45;3.80;;;21.40;65.80;;;;;;651299;221;26589;-72
2022/06/19 00:48:59;;;;;;;3.67;3.37;;;21.40;66.10;;;;;;651041;221;26827;-72
2022/06/19 00:51:26;;;;;;;4.72;4.22;;;21.40;65.50;;;;;;650095;220;26504;-72
2022/06/19 00:53:53;;;;;;;4.12;3.83;;;21.40;65.50;;;;;;650954;221;26888;-71
2022/06/19 00:56:21;;;;;;;4.78;4.10;;;21.40;66.30;;;;;;650971;221;26708;-72
2022/06/19 00:58:48;;;;;;;4.20;3.90;;;21.30;66.30;;;;;;650915;221;26781;-71
2022/06/19 01:01:15;;;;;;;4.10;3.62;;;21.30;66.50;;;;;;650809;221;26557;-71
2022/06/19 01:03:57;;;;;;;7.53;4.37;;;21.30;66.70;;;;;;651234;221;26818;-72
2022/06/19 01:06:24;;;;;;;5.75;4.12;;;21.30;66.70;;;;;;649921;221;26542;-72
2022/06/19 01:08:53;;;;;;;4.20;3.85;;;21.30;66.80;;;;;;651036;219;26513;-72
2022/06/19 01:11:21;;;;;;;4.57;3.92;;;21.20;66.60;;;;;;651113;221;26510;-72
2022/06/19 01:13:49;;;;;;;4.28;3.87;;;21.20;66.70;;;;;;650981;221;26500;-72
2022/06/19 01:16:16;;;;;;;5.75;4.15;;;21.20;66.70;;;;;;650675;221;26559;-72
2022/06/19 01:18:44;;;;;;;4.82;4.05;;;21.20;66.70;;;;;;650664;221;26573;-72
2022/06/19 01:21:14;;;;;;;5.55;3.92;;;21.20;66.50;;;;;;650665;221;26793;-72
2022/06/19 01:23:42;;;;;;;4.15;3.60;;;21.20;66.30;;;;;;650084;221;26887;-72
2022/06/19 01:26:09;;;;;;;4.70;4.22;;;21.20;67.00;;;;;;649695;221;26804;-72
2022/06/19 01:31:09;;;;;;;6.47;4.10;;;21.20;67.10;;;;;;650614;221;26594;-71
2022/06/19 01:33:37;;;;;;;6.62;4.55;;;21.20;66.60;;;;;;650685;221;26818;-72
2022/06/19 01:36:05;;;;;;;4.97;3.90;;;21.20;67.00;;;;;;650442;221;26528;-72
2022/06/19 01:38:32;;;;;;;4.53;3.78;;;21.10;66.90;;;;;;650543;221;26852;-72
2022/06/19 01:40:59;;;;;;;3.62;3.33;;;21.10;67.10;;;;;;650659;221;26559;-72
2022/06/19 01:43:26;;;;;;;6.07;3.70;;;21.10;67.60;;;;;;652428;220;27187;-71
2022/06/19 01:45:54;;;;;;;3.65;3.35;;;21.10;67.90;;;;;;651796;220;26578;-71
2022/06/19 01:48:22;;;;;;;4.00;3.70;;;21.10;67.60;;;;;;651585;221;27205;-72
2022/06/19 01:50:50;;;;;;;4.30;3.83;;;21.10;67.60;;;;;;651467;221;27082;-72
2022/06/19 01:53:18;;;;;;;6.15;3.80;;;21.10;68.20;;;;;;651300;221;26815;-72
2022/06/19 01:55:45;;;;;;;4.43;3.72;;;21.00;68.00;;;;;;651090;219;26574;-72
2022/06/19 01:58:13;;;;;;;5.47;4.07;;;21.00;68.00;;;;;;651241;221;26825;-72
2022/06/19 02:00:42;;;;;;;7.22;4.20;;;20.90;68.40;;;;;;651021;220;26578;-72
2022/06/19 02:03:08;;;;;;;4.43;3.50;;;20.90;68.30;;;;;;650805;221;26899;-72
2022/06/19 02:05:35;;;;;;;4.85;3.70;;;20.90;69.10;;;;;;650907;221;26519;-72
2022/06/19 02:08:02;;;;;;;7.07;3.83;;;20.90;68.40;;;;;;650785;221;26858;-72
2022/06/19 02:10:29;;;;;;;4.22;3.83;;;20.90;68.60;;;;;;650780;221;26512;-73
2022/06/19 02:12:57;;;;;;;5.55;4.00;;;20.90;69.10;;;;;;650739;221;26837;-73
2022/06/19 02:15:24;;;;;;;6.80;4.00;;;20.90;69.00;;;;;;650869;221;26508;-72
2022/06/19 02:17:52;;;;;;;9.00;4.15;;;20.90;69.00;;;;;;650771;221;26511;-73
2022/06/19 02:20:20;;;;;;;9.20;4.68;;;20.90;68.80;;;;;;650570;221;26509;-73
2022/06/19 02:22:48;;;;;;;7.15;4.20;;;20.90;68.80;;;;;;650780;221;26509;-73
2022/06/19 02:25:15;;;;;;;11.35;4.05;;;20.80;68.50;;;;;;650572;221;26539;-73
2022/06/19 02:27:42;;;;;;;4.87;3.72;;;20.80;69.00;;;;;;650584;217;26570;-73
2022/06/19 02:30:10;;;;;;;6.97;3.80;;;20.80;69.20;;;;;;650594;221;26579;-73
2022/06/19 02:32:39;;;;;;;7.93;4.28;;;20.80;68.90;;;;;;650583;221;26611;-73
2022/06/19 02:35:07;;;;;;;6.37;4.28;;;20.80;69.50;;;;;;650537;221;26569;-73
2022/06/19 02:37:34;;;;;;;4.47;3.70;;;20.70;69.00;;;;;;650612;219;26559;-73
2022/06/19 02:40:21;;;;;;;4.25;3.85;;;20.70;69.40;;;;;;650127;221;26831;-73
2022/06/19 02:42:49;;;;;;;4.68;3.72;;;20.70;69.40;;;;;;650207;221;26582;-72
2022/06/19 02:45:19;;;;;;;4.87;3.90;;;20.70;69.60;;;;;;650605;221;26796;-73
2022/06/19 02:47:46;;;;;;;6.45;4.00;;;20.70;69.10;;;;;;650472;219;26787;-73
2022/06/19 02:50:13;;;;;;;5.18;3.72;;;20.70;70.10;;;;;;650655;221;26512;-73
2022/06/19 02:52:40;;;;;;;5.12;3.72;;;20.70;70.10;;;;;;650658;219;26525;-73
2022/06/19 02:55:09;;;;;;;3.97;3.37;;;20.60;70.30;;;;;;652491;220;26541;-73
2022/06/19 02:57:36;;;;;;;4.80;3.80;;;20.60;70.20;;;;;;651859;220;26565;-73
2022/06/19 03:00:05;;;;;;;4.25;3.85;;;20.60;70.20;;;;;;651596;221;26536;-73
2022/06/19 03:02:32;;;;;;;7.60;3.67;;;20.60;70.20;;;;;;651506;221;26531;-73
2022/06/19 03:05:00;;;;;;;4.25;3.72;;;20.60;70.40;;;;;;651316;221;26755;-73
2022/06/19 03:07:27;;;;;;;5.32;3.75;;;20.60;70.10;;;;;;651173;221;26572;-73
2022/06/19 03:09:54;;;;;;;5.65;4.10;;;20.60;70.70;;;;;;651208;221;26832;-73
2022/06/19 03:12:22;;;;;;;6.50;3.55;;;20.70;70.70;;;;;;651022;221;26572;-72
2022/06/19 03:14:50;;;;;;;4.05;3.75;;;20.70;70.70;;;;;;650959;221;26515;-72
2022/06/19 03:17:18;;;;;;;4.43;3.95;;;20.70;70.30;;;;;;650790;221;26511;-72
2022/06/19 03:19:46;;;;;;;6.90;4.00;;;20.70;70.40;;;;;;650809;218;26527;-72
2022/06/19 03:22:13;;;;;;;4.43;4.12;;;20.70;70.40;;;;;;650945;221;26496;-72
2022/06/19 03:24:40;;;;;;;4.97;4.47;;;20.80;70.40;;;;;;650960;221;26747;-72
2022/06/19 03:27:08;;;;;;;4.18;3.72;;;20.80;70.50;;;;;;650919;221;26513;-72
2022/06/19 03:29:35;;;;;;;5.75;3.97;;;20.80;70.50;;;;;;650766;219;26758;-72
2022/06/19 03:32:04;;;;;;;4.82;3.92;;;20.80;70.50;;;;;;650576;221;26530;-72
2022/06/19 03:34:31;;;;;;;4.18;3.78;;;20.80;70.40;;;;;;650592;221;26564;-72
2022/06/19 03:36:58;;;;;;;4.53;3.62;;;20.80;70.50;;;;;;650518;221;26797;-72
2022/06/19 03:39:25;;;;;;;5.78;4.00;;;20.90;70.40;;;;;;650597;221;26590;-72
2022/06/19 03:41:52;;;;;;;3.78;3.50;;;20.90;70.40;;;;;;650649;220;26785;-72
2022/06/19 03:44:20;;;;;;;4.47;3.72;;;20.90;70.30;;;;;;650664;221;26548;-72
2022/06/19 03:46:47;;;;;;;4.60;4.20;;;20.90;70.20;;;;;;650644;221;26784;-72
2022/06/19 03:49:14;;;;;;;4.57;3.92;;;20.90;70.00;;;;;;650524;221;26605;-72
2022/06/19 03:51:41;;;;;;;4.12;3.58;;;21.00;70.30;;;;;;650634;221;26538;-72
2022/06/19 03:54:10;;;;;;;4.32;3.95;;;21.10;69.80;;;;;;650661;221;26512;-72
2022/06/19 03:56:37;;;;;;;6.30;3.97;;;21.10;70.00;;;;;;650591;221;26569;-72
2022/06/19 03:59:07;;;;;;;5.95;4.00;;;21.10;69.80;;;;;;650527;221;26593;-73
2022/06/19 04:01:34;;;;;;;5.45;4.30;;;21.20;70.20;;;;;;650410;221;26602;-73
2022/06/19 04:04:01;;;;;;;7.22;4.45;;;21.20;69.70;;;;;;650595;221;26757;-72
2022/06/19 04:06:29;;;;;;;4.28;3.97;;;21.20;69.70;;;;;;652380;219;26640;-72
2022/06/19 04:08:58;;;;;;;5.00;3.87;;;21.30;69.50;;;;;;651890;220;26597;-75
2022/06/19 04:11:26;;;;;;;5.37;3.78;;;21.30;69.20;;;;;;651643;219;26508;-75
2022/06/19 04:13:54;;;;;;;6.07;4.20;;;21.40;69.00;;;;;;651492;221;26577;-75
2022/06/19 04:16:22;;;;;;;4.53;4.12;;;21.40;69.00;;;;;;651335;221;26577;-76
2022/06/19 04:18:50;;;;;;;4.90;4.40;;;21.40;69.00;;;;;;651153;221;26610;-76
2022/06/19 04:21:18;;;;;;;5.55;4.35;;;21.50;69.10;;;;;;651316;221;26642;-73
2022/06/19 04:23:45;;;;;;;6.87;4.68;;;21.50;69.00;;;;;;650970;221;26579;-74
2022/06/19 04:26:13;;;;;;;5.75;4.30;;;21.60;69.20;;;;;;650908;221;26516;-74
2022/06/19 04:28:40;;;;;;;5.70;4.75;;;21.60;68.80;;;;;;651320;221;26556;-74
2022/06/19 04:31:08;;;;;;;5.22;4.10;;;21.60;68.70;;;;;;651347;221;26472;-74
2022/06/19 04:33:38;;;;;;;8.50;4.45;;;21.70;68.20;;;;;;651447;221;26687;-75
2022/06/19 04:36:02;;;;;;;7.20;4.90;;;21.70;68.20;;;;;;651144;221;26473;-75
2022/06/19 04:38:29;;;;;;;4.82;4.20;;;21.80;68.40;;;;;;651440;221;26555;-74
2022/06/19 04:40:56;;;;;;;6.40;4.53;;;21.80;68.20;;;;;;651294;220;26807;-75
2022/06/19 04:43:24;;;;;;;6.95;4.28;;;22.00;67.70;;;;;;650921;221;26557;-74
2022/06/19 04:45:52;;;;;;;5.40;4.40;;;22.00;67.60;;;;;;650624;221;26558;-75
2022/06/19 04:48:20;;;;;;;7.12;4.65;;;22.00;67.20;;;;;;649887;221;26594;-74
2022/06/19 04:50:48;;;;;;;4.90;4.50;;;22.10;66.90;;;;;;650575;221;26610;-75
2022/06/19 04:53:16;;;;;;;6.07;4.40;;;22.20;67.40;;;;;;650594;221;26584;-75
2022/06/19 04:55:44;;;;;;;5.47;4.50;;;22.30;67.30;;;;;;650622;221;26617;-75
2022/06/19 04:58:12;;;;;;;6.00;4.55;;;22.30;66.80;;;;;;650545;221;26981;-75
2022/06/19 05:00:40;;;;;;;5.43;4.95;;;22.40;66.60;;;;;;650653;221;26794;-75
2022/06/19 05:03:08;;;;;;;6.37;4.45;;;22.50;66.30;;;;;;650636;221;26861;-75
2022/06/19 05:05:35;;;;;;;5.62;4.70;;;22.50;66.30;;;;;;650563;221;27205;-76
2022/06/19 05:08:03;;;;;;;7.05;5.03;;;22.50;66.10;;;;;;650533;221;26682;-75
2022/06/19 05:10:30;;;;;;;6.35;4.80;;;22.60;65.70;;;;;;650604;221;26585;-75
2022/06/19 05:12:57;;;;;;;5.55;5.05;;;22.70;65.30;;;;;;650592;221;26807;-75
2022/06/19 05:15:24;;;;;;;6.10;4.50;;;22.70;65.10;;;;;;650576;221;26564;-76
2022/06/19 05:17:51;;;;;;;7.20;5.22;;;22.80;64.60;;;;;;652327;219;26806;-75
2022/06/19 05:20:19;;;;;;;5.28;4.75;;;22.90;64.70;;;;;;651865;220;26578;-76
2022/06/19 05:22:46;;;;;;;5.53;5.00;;;23.00;64.50;;;;;;651549;221;26750;-76
2022/06/19 05:25:13;;;;;;;5.43;4.97;;;23.00;63.70;;;;;;651531;221;26504;-75
2022/06/19 05:27:40;;;;;;;5.50;5.00;;;23.10;63.40;;;;;;651228;221;26604;-75
2022/06/19 05:30:09;;;;;;;6.03;5.43;;;23.20;63.40;;;;;;651148;221;26820;-76
2022/06/19 05:32:36;;;;;;;5.82;4.87;;;23.30;62.40;;;;;;651751;221;26562;-75
2022/06/19 05:35:03;;;;;;;7.05;5.35;;;23.40;62.50;;;;;;651579;221;26773;-74
2022/06/19 05:37:31;;;;;;;5.87;5.25;;;23.60;61.20;;;;;;651435;221;26484;-75
2022/06/19 05:39:58;;;;;;;6.00;5.07;;;23.60;61.20;;;;;;651450;221;26515;-75
2022/06/19 05:42:26;;;;;;;6.87;5.53;;;23.70;60.90;;;;;;651439;221;26484;-75
2022/06/19 05:44:53;;;;;;;8.38;5.70;;;23.80;60.20;;;;;;651463;221;26700;-74
2022/06/19 05:47:20;;;;;;;8.02;5.43;;;23.90;59.60;;;;;;651522;221;26521;-75
2022/06/19 05:49:47;;;;;;;8.65;5.75;;;24.00;59.10;;;;;;651421;221;26804;-75
2022/06/19 05:52:15;;;;;;;10.15;6.32;;;24.10;58.60;;;;;;651364;221;26516;-75
2022/06/19 05:54:42;;;;;;;11.77;6.18;;;24.30;58.20;;;;;;651037;221;26766;-75
2022/06/19 05:57:10;;;;;;;6.95;5.37;;;24.40;57.90;;;;;;651126;221;26503;-74
2022/06/19 05:59:37;;;;;;;7.80;5.43;;;24.50;57.60;;;;;;651096;221;26986;-75
2022/06/19 06:02:04;;;;;;;10.75;5.80;;;24.60;57.20;;;;;;651107;221;26486;-75
2022/06/19 06:04:31;;;;;;;9.23;5.70;;;24.80;56.90;;;;;;651002;219;26791;-74
2022/06/19 06:06:59;;;;;;;9.05;5.37;;;24.90;56.20;;;;;;651112;221;26481;-75
2022/06/19 06:09:26;;;;;;;10.75;5.82;;;25.00;56.00;;;;;;651076;221;26771;-75
2022/06/19 06:11:53;;;;;;;9.02;5.57;;;25.20;55.80;;;;;;651119;221;26498;-75
2022/06/19 06:14:21;;;;;;;12.88;5.72;;;25.30;55.50;;;;;;651030;221;26760;-74
2022/06/19 06:16:47;;;;;;;8.23;5.45;;;25.30;55.10;;;;;;650547;221;26593;-75
2022/06/19 06:19:15;;;;;;;8.32;5.62;;;25.50;54.70;;;;;;650597;221;26822;-75
2022/06/19 06:21:42;;;;;;;10.13;5.82;;;25.70;54.40;;;;;;650593;221;26530;-75
2022/06/19 06:24:13;;;;;;;9.88;5.87;;;25.80;54.10;;;;;;650643;221;26567;-75
2022/06/19 06:26:39;;;;;;;8.52;5.75;;;26.00;53.90;;;;;;650419;221;26574;-75
2022/06/19 06:29:07;;;;;;;13.50;5.68;;;25.90;53.80;;;;;;652009;219;26608;-74
2022/06/19 06:31:34;;;;;;;9.88;5.47;;;26.10;53.60;;;;;;651931;220;26558;-74
2022/06/19 06:34:01;;;;;;;9.35;5.00;;;26.20;53.30;;;;;;651498;220;26528;-74
2022/06/19 06:36:29;;;;;;;10.20;5.80;;;26.30;53.10;;;;;;651592;221;26603;-74
2022/06/19 06:38:56;;;;;;;8.10;5.00;;;26.40;52.90;;;;;;651197;221;26604;-74
2022/06/19 06:41:23;;;;;;;9.48;5.43;;;26.50;52.50;;;;;;651191;221;26798;-74
2022/06/19 06:43:50;;;;;;;9.23;5.62;;;26.60;52.20;;;;;;651283;221;26552;-74
2022/06/19 06:46:19;;;;;;;6.62;5.15;;;26.70;51.90;;;;;;651106;220;26810;-74
2022/06/19 06:48:46;;;;;;;9.23;5.12;;;26.90;51.40;;;;;;650958;221;26770;-74
2022/06/19 06:51:14;;;;;;;9.07;5.22;;;27.10;50.60;;;;;;650946;219;26520;-75
2022/06/19 06:53:42;;;;;;;8.38;5.30;;;27.20;50.80;;;;;;650899;221;26507;-75
2022/06/19 06:56:10;;;;;;;7.25;5.05;;;27.30;50.50;;;;;;650932;221;26504;-74
2022/06/19 06:58:39;;;;;;;10.45;5.20;;;27.40;49.80;;;;;;650922;221;26553;-76
2022/06/19 07:01:08;;;;;;;8.93;5.12;;;27.40;49.80;;;;;;650902;221;26512;-75
2022/06/19 07:03:34;;;;;;;12.13;5.40;;;27.60;50.00;;;;;;650789;221;26508;-75
2022/06/19 07:06:02;;;;;;;8.82;5.37;;;27.80;49.90;;;;;;650565;221;26560;-74
2022/06/19 07:08:30;;;;;;;7.65;4.57;;;27.80;49.90;;;;;;650574;219;26585;-74
2022/06/19 07:10:58;;;;;;;9.18;5.05;;;28.00;49.30;;;;;;650592;221;26987;-74
2022/06/19 07:13:25;;;;;;;9.07;4.68;;;28.00;49.20;;;;;;650654;221;26753;-74
2022/06/19 07:15:52;;;;;;;9.50;5.70;;;28.10;49.30;;;;;;650604;221;26592;-75
2022/06/19 07:18:19;;;;;;;14.45;5.37;;;28.20;48.90;;;;;;650590;221;26823;-74
2022/06/19 07:20:46;;;;;;;10.10;5.00;;;28.40;48.60;;;;;;650663;221;26568;-74
2022/06/19 07:23:14;;;;;;;9.45;5.03;;;28.50;48.00;;;;;;650548;221;26833;-74
2022/06/19 07:25:41;;;;;;;13.38;5.20;;;28.50;47.70;;;;;;650609;219;26590;-75
2022/06/19 07:28:08;;;;;;;10.55;5.10;;;28.60;47.50;;;;;;650651;221;26817;-75
2022/06/19 07:30:35;;;;;;;8.95;4.43;;;28.70;47.40;;;;;;651061;221;26505;-75
2022/06/19 07:33:02;;;;;;;10.90;5.10;;;28.90;47.50;;;;;;650993;221;26765;-75
2022/06/19 07:35:30;;;;;;;9.13;5.18;;;29.00;47.20;;;;;;650632;221;26556;-75
2022/06/19 07:37:58;;;;;;;11.55;4.95;;;29.20;46.50;;;;;;650743;217;26614;-73
2022/06/19 07:40:26;;;;;;;10.02;4.93;;;29.30;46.20;;;;;;651940;219;26594;-73
2022/06/19 07:42:53;;;;;;;11.60;4.78;;;29.20;46.20;;;;;;652045;219;26562;-74
2022/06/19 07:45:22;;;;;;;9.82;4.70;;;29.50;45.70;;;;;;651703;220;26519;-74
2022/06/19 07:50:23;;;;;;;5.20;4.10;;;29.50;45.60;;;;;;651335;221;26588;-71
2022/06/19 07:52:50;;;;;;;9.57;4.40;;;29.50;45.20;;;;;;651183;219;26784;-74
2022/06/19 07:55:17;;;;;;;6.55;3.97;;;29.60;45.00;;;;;;651287;221;26556;-74
2022/06/19 07:57:44;;;;;;;10.82;4.60;;;29.70;44.90;;;;;;651071;221;26804;-75
2022/06/19 08:00:16;;;;;;;11.10;4.07;;;29.90;45.10;;;;;;650923;221;26508;-74
2022/06/19 08:02:40;;;;;;;11.18;4.07;;;29.90;44.80;;;;;;650498;221;26500;-74
2022/06/19 08:05:11;;;;;;;7.18;3.87;;;30.10;44.60;;;;;;650985;219;26746;-74
2022/06/19 08:07:35;;;;;;;10.85;4.03;;;30.20;44.30;;;;;;650666;221;26837;-74
2022/06/19 08:10:02;;;;;;;5.50;3.17;;;30.30;44.10;;;;;;650902;217;26543;-74
2022/06/19 08:12:29;;;;;;;5.87;3.30;;;30.40;43.60;;;;;;650926;221;26757;-74
2022/06/19 08:14:56;;;;;;;9.57;3.72;;;30.50;43.50;;;;;;651076;221;26516;-73
2022/06/19 08:17:24;;;;;;;9.75;3.92;;;30.60;43.30;;;;;;650607;220;26779;-74
2022/06/19 08:19:51;;;;;;;7.43;4.05;;;30.70;43.10;;;;;;650626;221;26530;-74
2022/06/19 08:22:18;;;;;;;8.13;4.15;;;30.80;42.50;;;;;;650667;221;26777;-74
2022/06/19 08:24:45;;;;;;;7.55;3.37;;;30.90;42.20;;;;;;650650;221;26819;-74
2022/06/19 08:27:13;;;;;;;10.20;4.25;;;31.00;41.90;;;;;;650608;221;26601;-74
2022/06/19 08:29:40;;;;;;;7.20;3.58;;;31.20;41.80;;;;;;650674;221;26609;-74
2022/06/19 08:32:07;;;;;;;10.80;4.20;;;31.30;41.30;;;;;;650621;221;26795;-74
2022/06/19 08:34:34;;;;;;;12.60;3.40;;;31.30;41.10;;;;;;650635;221;26565;-74
2022/06/19 08:37:02;;;;;;;6.95;3.75;;;31.50;40.30;;;;;;650614;221;26544;-74
2022/06/19 08:39:29;;;;;;;11.68;3.78;;;31.50;40.30;;;;;;650523;218;26600;-73
2022/06/19 08:42:05;;;;;;;5.57;3.78;;;31.50;39.80;;;;;;650543;220;26595;-73
2022/06/19 08:44:41;;;;;;;11.52;3.83;;;31.60;39.40;;;;;;650106;221;26610;-73
2022/06/19 08:47:27;;;;;;;14.57;4.65;;;31.60;39.40;;;;;;650425;221;26490;-73
2022/06/19 08:50:04;;;;;;;8.45;4.40;;;31.70;39.40;;;;;;650447;221;26522;-74
2022/06/19 08:52:39;;;;;;;10.00;3.95;;;31.90;39.60;;;;;;652168;219;26555;-73
2022/06/19 08:55:16;;;;;;;9.63;4.10;;;31.90;39.20;;;;;;651521;220;26485;-74
2022/06/19 08:57:49;;;;;;;12.75;4.30;;;32.00;38.50;;;;;;651323;221;26712;-73
2022/06/19 09:00:18;;;;;;;6.50;3.92;;;32.10;38.20;;;;;;651538;221;26790;-74
2022/06/19 09:03:07;;;;;;;10.55;4.65;;;32.10;38.00;;;;;;651160;221;26588;-74
2022/06/19 09:05:46;;;;;;;13.23;4.70;;;32.10;38.60;;;;;;640769;220;27103;-75
2022/06/19 09:08:33;;;;;;;14.30;4.82;;;32.10;38.00;;;;;;651115;221;26579;-74
2022/06/19 09:11:20;;;;;;;13.13;5.32;;;32.10;38.20;;;;;;640117;220;26566;-74
2022/06/19 09:14:22;;;;;;;9.70;4.80;;;32.20;38.00;;;;;;650453;221;26560;-74
2022/06/19 09:17:07;;;;;;;10.07;5.37;;;32.40;37.80;;;;;;641963;221;26595;-74
2022/06/19 09:19:36;;;;;;;14.35;5.78;;;32.40;37.80;;;;;;650623;217;26536;-74
2022/06/19 09:22:07;;;;;;;10.32;5.32;;;32.50;37.90;;;;;;649732;221;26549;-75
2022/06/19 09:24:59;;;;;;;14.15;5.22;;;32.60;37.40;;;;;;649824;221;26862;-74
2022/06/19 09:27:26;;;;;;;7.05;3.60;;;32.70;37.00;;;;;;646259;221;26581;-74
2022/06/19 09:29:56;;;;;;;18.05;5.25;;;32.80;36.60;;;;;;650042;221;27039;-73
2022/06/19 09:32:38;;;;;;;11.35;5.37;;;32.80;36.60;;;;;;645697;221;26805;-72
2022/06/19 09:35:31;;;;;;;12.40;5.22;;;32.90;36.70;;;;;;645333;223;26598;-73
2022/06/19 09:38:00;;;;;;;13.95;5.25;;;32.90;36.20;;;;;;644775;223;26837;-74
2022/06/19 09:40:29;;;;;;;10.10;5.43;;;33.00;35.90;;;;;;645392;223;26799;-73
2022/06/19 09:42:57;;;;;;;13.55;5.10;;;33.10;36.00;;;;;;645784;221;26971;-73
2022/06/19 09:45:42;;;;;;;10.45;4.68;;;33.10;35.90;;;;;;645449;223;26545;-72
2022/06/19 09:48:37;;;;;;;13.38;5.47;;;33.40;35.80;;;;;;639234;221;26616;-73
2022/06/19 09:51:08;;;;;;;15.65;4.72;;;33.50;35.60;;;;;;642318;221;26573;-73
2022/06/19 09:53:37;;;;;;;9.57;4.55;;;33.60;35.50;;;;;;644655;221;26590;-74
2022/06/19 09:56:19;;;;;;;11.90;4.75;;;33.60;35.50;;;;;;639397;221;26580;-74
2022/06/19 09:58:47;;;;;;;15.15;4.50;;;33.70;34.80;;;;;;647845;220;26830;-75
2022/06/19 10:01:14;;;;;;;7.78;3.60;;;33.60;34.70;;;;;;642942;221;26804;-75
2022/06/19 10:03:44;;;;;;;3.30;2.50;;;33.70;34.30;;;;;;645007;220;26615;-75
2022/06/19 10:06:14;;;;;;;12.52;3.20;;;33.70;33.60;;;;;;644084;220;27190;-73
2022/06/19 10:08:45;;;;;;;7.70;3.25;;;33.70;33.90;;;;;;641622;221;26808;-74
2022/06/19 10:11:16;;;;;;;15.73;4.10;;;33.50;33.70;;;;;;647055;221;26517;-74
2022/06/19 10:13:47;;;;;;;8.45;3.78;;;33.60;34.30;;;;;;638951;224;26574;-73
2022/06/19 10:16:33;;;;;;;13.80;4.50;;;33.50;33.80;;;;;;639988;221;26916;-73
2022/06/19 10:19:00;;;;;;;11.00;3.85;;;33.70;34.40;;;;;;640153;221;26593;-73
2022/06/19 10:24:24;;;;;;;7.93;2.97;;;33.80;34.00;;;;;;647279;220;26612;-73
2022/06/19 10:26:59;;;;;;;10.98;3.20;;;33.70;33.90;;;;;;642724;221;26823;-73
2022/06/19 10:29:35;;;;;;;12.13;3.70;;;33.80;33.80;;;;;;640574;221;26574;-73
2022/06/19 10:32:11;;;;;;;11.98;3.72;;;33.90;33.90;;;;;;639826;221;26539;-74
2022/06/19 10:35:09;;;;;;;11.65;3.95;;;33.90;34.20;;;;;;647094;221;26748;-72
2022/06/19 10:37:37;;;;;;;9.27;3.05;;;33.90;33.90;;;;;;637618;221;26805;-73
2022/06/19 10:40:27;;;;;;;7.10;3.20;;;34.00;33.70;;;;;;639845;221;26546;-73
2022/06/19 10:43:13;;;;;;;9.60;3.47;;;34.00;33.80;;;;;;636943;221;26811;-73
2022/06/19 10:45:44;;;;;;;9.95;3.42;;;34.20;34.00;;;;;;641220;221;26804;-74
2022/06/19 10:48:17;;;;;;;10.00;3.28;;;34.30;33.70;;;;;;643335;220;26823;-74
2022/06/19 10:51:00;;;;;;;10.35;3.45;;;34.30;34.00;;;;;;647211;221;26516;-73
2022/06/19 10:53:36;;;;;;;7.90;3.22;;;34.40;33.80;;;;;;642200;221;26594;-73
2022/06/19 10:56:10;;;;;;;9.75;3.83;;;34.40;33.80;;;;;;640769;223;26637;-73
2022/06/19 10:58:38;;;;;;;6.22;2.58;;;34.40;33.80;;;;;;638140;223;26617;-74
2022/06/19 11:01:05;;;;;;;12.95;3.22;;;34.50;33.60;;;;;;638564;219;26624;-73
2022/06/19 11:06:10;;;;;;;10.68;3.95;;;34.70;33.50;;;;;;638942;221;26579;-71
2022/06/19 11:08:37;;;;;;;15.07;3.83;;;34.80;33.50;;;;;;643723;221;26578;-73
2022/06/19 11:11:05;;;;;;;6.35;3.17;;;34.90;33.40;;;;;;638201;223;26596;-73
2022/06/19 11:13:45;;;;;;;10.00;3.12;;;34.80;33.30;;;;;;641433;223;26570;-73
2022/06/19 11:16:12;;;;;;;9.48;3.20;;;35.00;33.30;;;;;;643583;222;26762;-72
2022/06/19 11:18:45;;;;;;;9.75;3.35;;;35.10;33.20;;;;;;650398;218;26537;-72
2022/06/19 11:21:13;;;;;;;12.35;3.50;;;35.10;33.10;;;;;;650150;221;26513;-72
2022/06/19 11:23:56;;;;;;;11.63;4.15;;;35.10;32.90;;;;;;638441;224;26562;-73
2022/06/19 11:26:23;;;;;;;12.85;3.70;;;35.10;33.00;;;;;;639218;225;26522;-72
2022/06/19 11:28:54;;;;;;;11.65;3.75;;;35.20;32.80;;;;;;638965;224;26774;-70
2022/06/19 11:31:22;;;;;;;7.93;3.15;;;35.30;33.00;;;;;;651290;220;26574;-71
2022/06/19 11:33:50;;;;;;;10.93;3.87;;;35.40;32.60;;;;;;638418;221;26519;-72
2022/06/19 11:36:23;;;;;;;12.77;3.80;;;35.50;32.80;;;;;;644649;221;26801;-71
2022/06/19 11:38:54;;;;;;;16.73;3.67;;;35.60;32.70;;;;;;641350;221;26549;-74
2022/06/19 11:41:33;;;;;;;12.60;4.25;;;35.60;32.60;;;;;;637647;221;26829;-72
2022/06/19 11:44:01;;;;;;;21.80;4.05;;;35.70;32.60;;;;;;643371;221;26793;-70
2022/06/19 11:46:30;;;;;;;10.23;3.35;;;35.60;32.80;;;;;;642684;221;26566;-72
2022/06/19 11:48:56;;;;;;;11.50;3.60;;;35.50;32.80;;;;;;644975;222;26822;-72
2022/06/19 11:51:23;;;;;;;16.23;4.45;;;35.70;33.00;;;;;;646849;221;26560;-72
2022/06/19 11:53:50;;;;;;;11.95;4.53;;;35.60;33.10;;;;;;649872;221;26847;-71
2022/06/19 11:56:20;;;;;;;9.05;4.40;;;35.30;35.80;;;;;;642963;221;26535;-73
2022/06/19 11:58:51;;;;;;;11.80;4.75;;;34.80;37.10;;;;;;649259;219;26793;-72
2022/06/19 12:01:20;;;;;;;12.68;5.20;;;34.60;39.90;;;;;;648531;221;26576;-72
2022/06/19 12:03:47;;;;;;;77.28;15.48;;;34.60;39.90;;;;;;637610;225;26594;-72
2022/06/19 12:06:15;;;;;;;86.53;19.92;;;34.40;41.00;;;;;;638327;224;26516;-72
2022/06/19 12:09:01;;;;;;;109.53;27.40;;;34.40;41.00;;;;;;638555;223;26575;-70
2022/06/19 12:11:37;;;;;;;67.75;19.15;;;34.20;41.10;;;;;;641376;221;26570;-74
2022/06/19 12:14:04;;;;;;;21.25;7.60;;;33.70;41.60;;;;;;650493;221;26599;-71
2022/06/19 12:16:32;;;;;;;15.27;6.45;;;33.70;41.50;;;;;;646653;221;26815;-72
2022/06/19 12:19:21;;;;;;;13.02;5.40;;;33.90;41.30;;;;;;639211;221;26539;-72
2022/06/19 12:21:49;;;;;;;13.07;5.68;;;33.80;40.60;;;;;;643169;221;26588;-72
2022/06/19 12:24:17;;;;;;;12.23;4.10;;;33.80;40.10;;;;;;649860;221;26574;-69
2022/06/19 12:26:45;;;;;;;9.48;4.25;;;33.80;39.30;;;;;;651480;219;26607;-68
2022/06/19 12:29:35;;;;;;;12.63;4.35;;;33.90;39.10;;;;;;651293;220;26582;-71
2022/06/19 12:32:04;;;;;;;9.73;4.57;;;34.00;38.80;;;;;;651330;220;26508;-68
2022/06/19 12:34:36;;;;;;;9.68;4.10;;;34.00;38.80;;;;;;651305;221;26796;-70
2022/06/19 12:37:04;;;;;;;9.90;4.57;;;34.20;38.40;;;;;;651081;221;26562;-70
2022/06/19 12:39:31;;;;;;;10.40;4.80;;;34.30;38.20;;;;;;651185;221;26601;-71
2022/06/19 12:42:13;;;;;;;10.15;4.05;;;34.70;37.80;;;;;;651210;219;26780;-69
2022/06/19 12:44:59;;;;;;;11.63;4.10;;;34.80;37.30;;;;;;640126;220;26798;-72
2022/06/19 12:47:35;;;;;;;10.00;3.85;;;34.20;38.30;;;;;;649385;221;26539;-72
2022/06/19 12:50:06;;;;;;;8.07;3.80;;;34.20;38.30;;;;;;650466;221;26825;-71
2022/06/19 12:52:36;;;;;;;11.43;4.35;;;33.90;38.30;;;;;;649610;221;26729;-71
2022/06/19 12:55:23;;;;;;;10.60;4.47;;;34.10;38.20;;;;;;650220;221;26568;-71
2022/06/19 12:57:56;;;;;;;13.00;4.03;;;34.60;37.80;;;;;;650955;221;26556;-71
2022/06/19 13:00:24;;;;;;;10.15;3.97;;;34.60;37.80;;;;;;650150;221;26814;-71
2022/06/19 13:03:05;;;;;;;8.90;3.65;;;35.20;37.10;;;;;;649842;221;26752;-71
2022/06/19 13:05:50;;;;;;;10.30;4.28;;;35.20;36.50;;;;;;648998;221;26575;-71
2022/06/19 13:08:36;;;;;;;12.52;4.05;;;35.40;36.30;;;;;;639899;220;26590;-71